createdAt,value
2018-11-14T00:01:13.774Z,11.93
2018-11-14T00:03:42.004Z,10.40
2018-11-14T00:06:10.178Z,11.50
2018-11-14T00:08:38.357Z,10.97
2018-11-14T00:11:06.658Z,11.27
2018-11-14T00:13:34.873Z,16.23
2018-11-14T00:16:03.046Z,19.10
2018-11-14T00:18:31.329Z,16.40
2018-11-14T00:20:59.550Z,15.03
2018-11-14T00:23:27.749Z,20.50
2018-11-14T00:25:55.990Z,15.87
2018-11-14T00:28:24.318Z,16.27
2018-11-14T00:30:52.533Z,29.87
2018-11-14T00:33:20.741Z,23.37
2018-11-14T00:35:49.267Z,15.83
2018-11-14T00:38:17.112Z,11.37
2018-11-14T00:40:45.389Z,13.70
2018-11-14T00:43:13.841Z,12.93
2018-11-14T00:45:42.062Z,21.30
2018-11-14T00:48:10.317Z,25.13
2018-11-14T00:50:38.545Z,14.83
2018-11-14T00:53:06.758Z,19.53
2018-11-14T00:55:35.241Z,21.43
2018-11-14T00:58:03.534Z,31.27
2018-11-14T01:00:31.776Z,28.73
2018-11-14T01:03:00.066Z,42.43
2018-11-14T01:05:28.506Z,30.37
2018-11-14T01:07:56.832Z,18.43
2018-11-14T01:10:25.167Z,20.67
2018-11-14T01:12:53.383Z,20.90
2018-11-14T01:15:22.683Z,40.97
2018-11-14T01:17:50.901Z,23.40
2018-11-14T01:20:20.519Z,24.47
2018-11-14T01:22:48.962Z,23.40
2018-11-14T01:25:17.931Z,18.20
2018-11-14T01:27:46.505Z,12.57
2018-11-14T01:30:17.840Z,37.53
2018-11-14T01:32:46.746Z,27.27
2018-11-14T01:35:15.527Z,13.17
2018-11-14T01:37:43.713Z,16.43
2018-11-14T01:40:17.704Z,11.27
2018-11-14T01:42:48.953Z,19.43
2018-11-14T01:45:17.113Z,10.70
2018-11-14T01:47:45.288Z,19.20
2018-11-14T01:50:13.433Z,12.90
2018-11-14T01:52:41.591Z,12.07
2018-11-14T01:55:11.756Z,10.97
2018-11-14T01:57:39.981Z,11.80
2018-11-14T02:00:10.742Z,17.53
2018-11-14T02:02:39.008Z,17.87
2018-11-14T02:05:07.924Z,18.80
2018-11-14T02:07:36.264Z,15.67
2018-11-14T02:10:06.253Z,18.23
2018-11-14T02:12:34.442Z,64.33
2018-11-14T02:15:02.601Z,25.43
2018-11-14T02:17:30.753Z,32.43
2018-11-14T02:19:58.904Z,19.53
2018-11-14T02:22:27.077Z,29.67
2018-11-14T02:24:55.253Z,19.10
2018-11-14T02:27:23.402Z,23.83
2018-11-14T02:29:51.789Z,30.50
2018-11-14T02:32:19.949Z,29.13
2018-11-14T02:34:48.113Z,57.80
2018-11-14T02:37:16.274Z,54.97
2018-11-14T02:39:44.438Z,20.80
2018-11-14T02:42:12.582Z,31.20
2018-11-14T02:44:40.765Z,43.00
2018-11-14T02:47:08.916Z,23.53
2018-11-14T02:49:37.201Z,24.57
2018-11-14T02:52:05.548Z,19.00
2018-11-14T02:54:33.701Z,23.87
2018-11-14T02:57:01.854Z,29.97
2018-11-14T02:59:30.005Z,27.73
2018-11-14T03:01:58.157Z,38.23
2018-11-14T03:04:26.330Z,18.80
2018-11-14T03:06:54.469Z,30.27
2018-11-14T03:09:23.110Z,24.07
2018-11-14T03:11:51.297Z,36.70
2018-11-14T03:14:19.456Z,27.50
2018-11-14T03:16:47.613Z,31.00
2018-11-14T03:19:15.787Z,55.63
2018-11-14T03:21:43.948Z,29.30
2018-11-14T03:24:12.097Z,34.03
2018-11-14T03:26:40.253Z,19.97
2018-11-14T03:29:08.421Z,47.90
2018-11-14T03:31:36.577Z,38.87
2018-11-14T03:34:05.213Z,26.27
2018-11-14T03:36:33.369Z,17.63
2018-11-14T03:39:01.521Z,25.23
2018-11-14T03:41:29.678Z,12.87
2018-11-14T03:43:57.850Z,9.93
2018-11-14T03:46:26.014Z,24.40
2018-11-14T03:48:54.181Z,14.20
2018-11-14T03:51:22.333Z,13.63
2018-11-14T03:53:50.514Z,14.63
2018-11-14T03:56:18.665Z,10.30
2018-11-14T03:58:46.840Z,12.13
2018-11-14T04:01:15.004Z,16.50
2018-11-14T04:03:43.175Z,12.23
2018-11-14T04:06:11.352Z,19.10
2018-11-14T04:08:39.557Z,16.07
2018-11-14T04:11:07.798Z,17.73
2018-11-14T04:13:36.056Z,19.97
2018-11-14T04:16:04.242Z,25.27
2018-11-14T04:18:32.543Z,18.80
2018-11-14T04:21:00.755Z,22.83
2018-11-14T04:23:28.942Z,30.67
2018-11-14T04:25:57.108Z,19.73
2018-11-14T04:28:25.263Z,20.27
2018-11-14T04:30:53.449Z,32.23
2018-11-14T04:39:14.473Z,32.87
2018-11-14T04:41:42.646Z,33.73
2018-11-14T04:44:10.809Z,21.67
2018-11-14T04:46:38.987Z,31.70
2018-11-14T04:49:07.159Z,18.73
2018-11-14T04:51:35.397Z,19.23
2018-11-14T04:54:03.590Z,39.07
2018-11-14T04:56:31.749Z,20.13
2018-11-14T04:58:59.922Z,18.60
2018-11-14T05:01:28.073Z,12.53
2018-11-14T05:03:56.216Z,17.40
2018-11-14T05:06:24.373Z,12.30
2018-11-14T05:08:52.769Z,13.93
2018-11-14T05:11:21.951Z,17.60
2018-11-14T05:13:49.906Z,14.27
2018-11-14T05:16:18.076Z,16.10
2018-11-14T05:18:46.237Z,13.23
2018-11-14T05:21:14.437Z,16.43
2018-11-14T05:23:42.599Z,19.00
2018-11-14T05:26:10.755Z,18.13
2018-11-14T05:28:39.010Z,16.83
2018-11-14T05:31:07.177Z,20.40
2018-11-14T05:33:35.349Z,21.70
2018-11-14T05:36:03.506Z,19.70
2018-11-14T05:38:31.677Z,24.53
2018-11-14T05:40:59.849Z,27.87
2018-11-14T05:43:28.074Z,24.47
2018-11-14T05:45:56.272Z,34.53
2018-11-14T05:48:24.416Z,23.87
2018-11-14T05:50:52.594Z,38.13
2018-11-14T05:53:20.762Z,18.93
2018-11-14T05:55:48.913Z,25.80
2018-11-14T05:58:17.076Z,25.73
2018-11-14T06:00:45.233Z,20.70
2018-11-14T06:03:13.372Z,14.73
2018-11-14T06:05:41.541Z,27.87
2018-11-14T06:08:09.694Z,19.10
2018-11-14T06:10:38.125Z,13.40
2018-11-14T06:13:06.278Z,18.50
2018-11-14T06:15:34.490Z,16.40
2018-11-14T06:18:02.641Z,19.00
2018-11-14T06:20:30.805Z,22.80
2018-11-14T06:22:59.018Z,16.63
2018-11-14T06:25:29.851Z,24.90
2018-11-14T06:27:58.726Z,14.50
2018-11-14T06:30:27.219Z,32.80
2018-11-14T06:32:55.893Z,21.10
2018-11-14T06:35:24.231Z,36.73
2018-11-14T06:37:52.964Z,33.47
2018-11-14T06:40:21.172Z,17.07
2018-11-14T06:42:52.172Z,15.37
2018-11-14T06:45:24.914Z,17.17
2018-11-14T06:47:54.369Z,18.23
2018-11-14T06:50:22.552Z,17.00
2018-11-14T06:52:52.042Z,22.13
2018-11-14T06:55:20.610Z,23.57
2018-11-14T06:57:48.789Z,19.43
2018-11-14T07:00:22.913Z,38.60
2018-11-14T07:02:53.669Z,40.33
2018-11-14T07:05:21.844Z,42.87
2018-11-14T07:07:50.018Z,23.97
2018-11-14T07:10:19.499Z,14.00
2018-11-14T07:12:47.646Z,13.90
2018-11-14T07:15:17.878Z,17.47
2018-11-14T07:17:46.631Z,17.03
2018-11-14T07:20:17.507Z,24.23
2018-11-14T07:22:45.689Z,21.40
2018-11-14T07:25:14.456Z,26.53
2018-11-14T07:27:42.698Z,20.97
2018-11-14T07:30:13.558Z,30.03
2018-11-14T07:32:46.857Z,22.20
2018-11-14T07:35:15.757Z,28.97
2018-11-14T07:38:01.564Z,33.87
2018-11-14T07:40:29.692Z,18.03
2018-11-14T07:42:57.897Z,20.30
2018-11-14T07:45:26.075Z,26.27
2018-11-14T07:47:54.234Z,26.43
2018-11-14T07:50:22.369Z,13.97
2018-11-14T07:52:50.529Z,11.93
2018-11-14T07:55:18.673Z,14.33
2018-11-14T07:57:46.841Z,10.30
2018-11-14T08:00:16.641Z,15.23
2018-11-14T08:02:45.137Z,10.57
2018-11-14T08:05:13.401Z,10.60
2018-11-14T08:07:41.959Z,10.73
2018-11-14T08:10:11.782Z,24.90
2018-11-14T08:12:39.977Z,14.57
2018-11-14T08:15:08.950Z,14.17
2018-11-14T08:17:37.104Z,14.33
2018-11-14T08:20:08.429Z,10.53
2018-11-14T08:22:36.566Z,9.97
2018-11-14T08:25:05.037Z,11.03
2018-11-14T08:27:33.181Z,9.50
2018-11-14T08:30:01.364Z,12.63
2018-11-14T08:32:29.530Z,15.20
2018-11-14T08:34:57.706Z,9.60
2018-11-14T08:37:25.848Z,11.53
2018-11-14T08:39:54.049Z,10.83
2018-11-14T08:42:22.234Z,10.07
2018-11-14T08:44:50.369Z,11.00
2018-11-14T08:47:18.514Z,9.57
2018-11-14T08:49:46.643Z,11.30
2018-11-14T08:52:14.780Z,9.60
2018-11-14T08:54:42.938Z,10.90
2018-11-14T08:57:11.065Z,11.57
2018-11-14T08:59:39.276Z,11.33
2018-11-14T09:02:07.429Z,13.07
2018-11-14T09:04:35.583Z,12.50
2018-11-14T09:07:03.753Z,14.20
2018-11-14T09:09:31.891Z,14.67
2018-11-14T09:12:00.042Z,14.70
2018-11-14T09:14:28.260Z,14.13
2018-11-14T09:16:56.321Z,11.87
2018-11-14T09:19:24.476Z,10.97
2018-11-14T09:21:52.634Z,17.37
2018-11-14T09:24:20.917Z,11.83
2018-11-14T09:26:49.237Z,14.63
2018-11-14T09:29:17.411Z,15.13
2018-11-14T09:31:45.559Z,12.10
2018-11-14T09:34:13.702Z,10.90
2018-11-14T09:36:41.843Z,22.30
2018-11-14T09:39:11.576Z,14.20
2018-11-14T09:41:39.751Z,16.83
2018-11-14T09:44:07.948Z,13.70
2018-11-14T09:46:36.433Z,14.50
2018-11-14T09:49:05.347Z,13.70
2018-11-14T09:51:33.665Z,15.20
2018-11-14T09:54:01.824Z,15.83
2018-11-14T09:56:30.035Z,14.13
2018-11-14T09:58:58.129Z,14.80
2018-11-14T10:01:26.270Z,12.17
2018-11-14T10:03:54.453Z,13.23
2018-11-14T10:06:22.613Z,11.47
2018-11-14T10:08:50.799Z,12.33
2018-11-14T10:11:18.926Z,12.30
2018-11-14T10:13:47.107Z,12.97
2018-11-14T10:16:15.241Z,13.97
2018-11-14T10:18:43.406Z,12.57
2018-11-14T10:21:11.688Z,14.37
2018-11-14T10:23:39.859Z,12.10
2018-11-14T10:26:08.021Z,13.00
2018-11-14T10:28:36.184Z,12.10
2018-11-14T10:31:04.394Z,12.10
2018-11-14T10:33:32.569Z,11.23
2018-11-14T10:36:00.720Z,12.57
2018-11-14T10:38:35.154Z,10.97
2018-11-14T10:41:03.297Z,9.30
2018-11-14T10:43:31.438Z,9.40
2018-11-14T10:45:59.585Z,10.60
2018-11-14T10:48:27.771Z,12.63
2018-11-14T10:50:56.013Z,12.73
2018-11-14T10:53:24.158Z,13.03
2018-11-14T10:55:52.312Z,13.07
2018-11-14T10:58:20.573Z,9.57
2018-11-14T11:00:52.881Z,11.83
2018-11-14T11:04:30.203Z,8.97
2018-11-14T11:07:03.666Z,9.07
2018-11-14T11:09:37.374Z,8.80
2018-11-14T11:12:11.097Z,9.57
2018-11-14T11:14:44.745Z,5.73
2018-11-14T11:17:18.144Z,6.10
2018-11-14T11:19:46.297Z,6.00
2018-11-14T11:22:14.434Z,6.67
2018-11-14T11:24:42.751Z,5.00
2018-11-14T11:27:10.914Z,5.60
2018-11-14T11:29:39.060Z,8.07
2018-11-14T11:32:07.299Z,3.60
2018-11-14T11:34:35.347Z,7.27
2018-11-14T11:37:03.477Z,5.23
2018-11-14T11:39:31.605Z,6.80
2018-11-14T11:41:59.735Z,7.23
2018-11-14T11:44:28.000Z,6.83
2018-11-14T11:46:56.063Z,4.47
2018-11-14T11:49:24.261Z,6.57
2018-11-14T11:51:52.393Z,4.23
2018-11-14T11:54:20.604Z,4.83
2018-11-14T11:56:48.756Z,5.47
2018-11-14T11:59:16.886Z,4.87
2018-11-14T12:01:45.014Z,4.53
2018-11-14T12:04:13.167Z,6.47
2018-11-14T12:06:41.298Z,5.23
2018-11-14T12:09:10.806Z,7.10
2018-11-14T12:11:38.953Z,4.10
2018-11-14T12:14:07.366Z,3.00
2018-11-14T12:16:35.526Z,6.20
2018-11-14T12:19:03.712Z,3.70
2018-11-14T12:21:31.821Z,3.80
2018-11-14T12:23:59.951Z,3.07
2018-11-14T12:26:28.082Z,5.73
2018-11-14T12:28:56.200Z,3.30
2018-11-14T12:31:24.353Z,2.20
2018-11-14T12:33:52.488Z,2.33
2018-11-14T12:36:20.621Z,3.00
2018-11-14T12:38:48.808Z,2.97
2018-11-14T12:41:16.883Z,3.80
2018-11-14T12:43:45.009Z,3.53
2018-11-14T12:46:13.137Z,3.40
2018-11-14T12:48:41.270Z,5.00
2018-11-14T12:51:09.404Z,4.23
2018-11-14T12:53:37.579Z,2.70
2018-11-14T12:56:05.747Z,2.57
2018-11-14T12:58:34.162Z,2.30
2018-11-14T13:01:02.309Z,2.90
2018-11-14T13:03:30.438Z,2.53
2018-11-14T13:05:58.625Z,2.23
2018-11-14T13:08:26.765Z,4.47
2018-11-14T13:10:54.894Z,4.37
2018-11-14T13:13:23.043Z,2.97
2018-11-14T13:15:51.177Z,3.47
2018-11-14T13:18:19.308Z,3.00
2018-11-14T13:20:47.463Z,2.30
2018-11-14T13:23:15.589Z,3.57
2018-11-14T13:25:43.725Z,3.23
2018-11-14T13:28:11.855Z,3.90
2018-11-14T13:30:39.997Z,2.73
2018-11-14T13:33:08.164Z,4.17
2018-11-14T13:35:36.299Z,3.17
2018-11-14T13:38:04.898Z,3.63
2018-11-14T13:40:33.053Z,3.30
2018-11-14T13:43:01.238Z,3.00
2018-11-14T13:45:29.363Z,6.83
2018-11-14T13:47:57.493Z,4.13
2018-11-14T13:50:25.739Z,3.43
2018-11-14T13:52:53.789Z,3.00
2018-11-14T13:55:21.961Z,2.97
2018-11-14T13:57:51.717Z,5.20
2018-11-14T14:00:21.201Z,3.13
2018-11-14T14:02:56.330Z,2.80
2018-11-14T14:05:26.066Z,3.83
2018-11-14T14:07:55.354Z,3.50
2018-11-14T14:10:23.523Z,2.90
2018-11-14T14:12:53.514Z,4.60
2018-11-14T14:15:23.933Z,4.87
2018-11-14T14:17:52.446Z,4.47
2018-11-14T14:20:21.191Z,3.47
2018-11-14T14:22:49.757Z,5.37
2018-11-14T14:25:19.174Z,9.63
2018-11-14T14:27:47.325Z,4.23
2018-11-14T14:30:16.763Z,7.77
2018-11-14T14:32:45.550Z,2.67
2018-11-14T14:35:16.722Z,2.83
2018-11-14T14:37:44.940Z,2.50
2018-11-14T14:40:14.550Z,2.20
2018-11-14T14:42:42.782Z,4.30
2018-11-14T14:45:12.064Z,3.50
2018-11-14T14:47:40.242Z,4.43
2018-11-14T14:50:11.545Z,3.17
2018-11-14T14:52:40.342Z,3.83
2018-11-14T14:55:15.085Z,6.53
2018-11-14T14:57:43.862Z,3.70
2018-11-14T15:00:13.968Z,2.63
2018-11-14T15:02:42.454Z,3.37
2018-11-14T15:05:11.597Z,3.53
2018-11-14T15:07:40.138Z,4.80
2018-11-14T15:10:10.651Z,2.07
2018-11-14T15:12:38.905Z,4.63
2018-11-14T15:15:07.072Z,3.17
2018-11-14T15:17:35.375Z,4.30
2018-11-14T15:20:04.027Z,3.37
2018-11-14T15:22:32.273Z,5.20
2018-11-14T15:25:00.375Z,4.20
2018-11-14T15:27:28.527Z,3.63
2018-11-14T15:29:56.658Z,3.30
2018-11-14T15:32:24.807Z,2.43
2018-11-14T15:34:52.967Z,2.37
2018-11-14T15:37:21.114Z,3.37
2018-11-14T15:39:49.269Z,3.73
2018-11-14T15:42:17.438Z,4.47
2018-11-14T15:44:45.588Z,2.77
2018-11-14T15:47:13.803Z,2.80
2018-11-14T15:49:41.977Z,3.43
2018-11-14T15:52:10.123Z,4.70
2018-11-14T15:54:38.285Z,2.90
2018-11-14T15:57:06.481Z,6.90
2018-11-14T15:59:34.669Z,4.37
2018-11-14T16:02:02.845Z,3.87
2018-11-14T16:04:30.980Z,3.60
2018-11-14T16:06:59.110Z,4.60
2018-11-14T16:09:27.294Z,8.10
2018-11-14T16:11:55.447Z,4.23
2018-11-14T16:14:23.569Z,4.93
2018-11-14T16:16:51.721Z,5.57
2018-11-14T16:19:19.865Z,5.77
2018-11-14T16:21:48.017Z,9.17
2018-11-14T16:24:16.205Z,6.67
2018-11-14T16:26:44.389Z,7.23
2018-11-14T16:29:12.521Z,5.20
2018-11-14T16:31:40.778Z,7.07
2018-11-14T16:34:09.350Z,7.20
2018-11-14T16:36:37.494Z,5.20
2018-11-14T16:39:09.158Z,7.97
2018-11-14T16:41:37.286Z,6.17
2018-11-14T16:44:05.752Z,7.80
2018-11-14T16:46:33.901Z,8.60
2018-11-14T16:49:02.047Z,6.67
2018-11-14T16:51:30.197Z,7.60
2018-11-14T16:53:58.333Z,8.03
2018-11-14T16:56:26.464Z,7.33
2018-11-14T16:58:54.614Z,9.43
2018-11-14T17:01:22.779Z,9.27
2018-11-14T17:03:51.249Z,6.77
2018-11-14T17:06:19.233Z,6.70
2018-11-14T17:08:47.369Z,8.13
2018-11-14T17:11:15.561Z,7.40
2018-11-14T17:13:43.721Z,8.83
2018-11-14T17:16:11.865Z,10.33
2018-11-14T17:18:40.021Z,10.40
2018-11-14T17:21:08.164Z,9.93
2018-11-14T17:23:36.310Z,10.57
2018-11-14T17:26:04.762Z,9.80
2018-11-14T17:28:32.888Z,13.13
2018-11-14T17:31:01.022Z,12.37
2018-11-14T17:33:29.190Z,14.77
2018-11-14T17:35:57.366Z,12.70
2018-11-14T17:38:25.497Z,14.90
2018-11-14T17:40:53.646Z,13.73
2018-11-14T17:43:21.818Z,17.33
2018-11-14T17:45:50.182Z,14.70
2018-11-14T17:48:18.419Z,13.23
2018-11-14T17:50:46.682Z,16.33
2018-11-14T17:53:14.889Z,15.00
2018-11-14T17:55:43.209Z,19.30
2018-11-14T17:58:11.422Z,19.93
2018-11-14T18:00:39.663Z,29.87
2018-11-14T18:03:07.948Z,21.13
2018-11-14T18:05:36.156Z,23.40
2018-11-14T18:08:04.628Z,20.00
2018-11-14T18:10:32.854Z,18.67
2018-11-14T18:13:02.051Z,15.37
2018-11-14T18:15:30.404Z,18.97
2018-11-14T18:17:58.968Z,17.00
2018-11-14T18:20:28.620Z,18.67
2018-11-14T18:22:57.118Z,15.73
2018-11-14T18:25:25.359Z,17.50
2018-11-14T18:27:53.762Z,18.70
2018-11-14T18:30:24.169Z,22.13
2018-11-14T18:32:53.111Z,18.30
2018-11-14T18:35:22.163Z,19.00
2018-11-14T18:37:51.309Z,18.50
2018-11-14T18:40:20.883Z,18.80
2018-11-14T18:42:49.175Z,21.83
2018-11-14T18:45:21.576Z,20.70
2018-11-14T18:47:49.998Z,20.03
2018-11-14T18:50:19.218Z,22.43
2018-11-14T18:52:47.919Z,19.00
2018-11-14T18:55:17.423Z,18.47
2018-11-14T18:57:45.872Z,19.70
2018-11-14T19:00:15.977Z,20.60
2018-11-14T19:02:44.341Z,20.53
2018-11-14T19:05:13.044Z,19.40
2018-11-14T19:07:41.668Z,18.60
2018-11-14T19:10:11.426Z,20.00
2018-11-14T19:12:40.244Z,20.60
2018-11-14T19:15:12.927Z,20.70
2018-11-14T19:17:41.470Z,18.70
2018-11-14T19:20:12.403Z,19.53
2018-11-14T19:22:40.673Z,19.60
2018-11-14T19:25:10.909Z,19.60
2018-11-14T19:27:39.189Z,19.70
2018-11-14T19:30:09.642Z,20.30
2018-11-14T19:32:37.904Z,21.50
2018-11-14T19:35:07.894Z,19.70
2018-11-14T19:37:36.211Z,19.17
2018-11-14T19:40:05.116Z,22.93
2018-11-14T19:42:33.316Z,18.20
2018-11-14T19:45:01.529Z,19.53
2018-11-14T19:47:29.839Z,19.80
2018-11-14T19:49:58.156Z,25.13
2018-11-14T19:52:26.428Z,19.50
2018-11-14T19:54:54.725Z,20.40
2018-11-14T19:57:22.944Z,21.27
2018-11-14T19:59:51.265Z,21.50
2018-11-14T20:02:19.510Z,18.10
2018-11-14T20:04:47.790Z,18.93
2018-11-14T20:07:16.012Z,18.67
2018-11-14T20:09:44.306Z,18.80
2018-11-14T20:12:12.564Z,22.20
2018-11-14T20:14:40.954Z,21.47
2018-11-14T20:17:09.244Z,20.67
2018-11-14T20:19:37.530Z,21.20
2018-11-14T20:22:05.793Z,20.23
2018-11-14T20:24:34.104Z,19.97
2018-11-14T20:27:02.339Z,22.40
2018-11-14T20:29:30.597Z,21.50
2018-11-14T20:31:58.952Z,24.40
2018-11-14T20:34:27.245Z,23.37
2018-11-14T20:36:55.519Z,21.30
2018-11-14T20:39:23.815Z,27.47
2018-11-14T20:41:52.094Z,20.23
2018-11-14T20:44:20.435Z,22.90
2018-11-14T20:46:48.683Z,22.60
2018-11-14T20:49:17.108Z,26.97
2018-11-14T20:51:45.311Z,25.50
2018-11-14T20:54:13.624Z,23.73
2018-11-14T20:56:42.026Z,21.63
2018-11-14T20:59:10.333Z,24.10
2018-11-14T21:01:38.511Z,22.60
2018-11-14T21:04:06.837Z,22.53
2018-11-14T21:06:35.181Z,24.67
2018-11-14T21:09:04.605Z,24.30
2018-11-14T21:11:32.890Z,25.83
2018-11-14T21:14:01.149Z,25.03
2018-11-14T21:16:29.542Z,21.23
2018-11-14T21:18:57.886Z,24.83
2018-11-14T21:21:26.117Z,24.80
2018-11-14T21:23:54.297Z,22.77
2018-11-14T21:26:22.549Z,23.63
2018-11-14T21:28:50.887Z,24.53
2018-11-14T21:31:19.212Z,25.00
2018-11-14T21:33:47.494Z,26.07
2018-11-14T21:36:15.823Z,27.47
2018-11-14T21:38:44.005Z,25.83
2018-11-14T21:41:12.298Z,26.63
2018-11-14T21:43:40.614Z,25.40
2018-11-14T21:46:08.995Z,26.83
2018-11-14T21:48:37.310Z,24.87
2018-11-14T21:51:05.661Z,26.47
2018-11-14T21:53:34.002Z,25.40
2018-11-14T21:56:02.294Z,25.30
2018-11-14T21:58:30.618Z,29.47
2018-11-14T22:00:58.952Z,28.73
2018-11-14T22:03:27.247Z,28.03
2018-11-14T22:05:55.530Z,26.33
2018-11-14T22:08:24.025Z,26.97
2018-11-14T22:10:52.302Z,32.83
2018-11-14T22:13:20.569Z,28.33
2018-11-14T22:15:50.906Z,29.57
2018-11-14T22:18:19.206Z,28.37
2018-11-14T22:20:47.502Z,30.67
2018-11-14T22:23:15.763Z,30.90
2018-11-14T22:25:44.050Z,29.30
2018-11-14T22:28:12.366Z,34.77
2018-11-14T22:30:41.552Z,31.07
2018-11-14T22:33:11.140Z,27.67
2018-11-14T22:35:39.538Z,26.03
2018-11-14T22:38:07.869Z,30.77
2018-11-14T22:43:47.677Z,26.77
2018-11-14T22:46:16.154Z,29.37
2018-11-14T22:48:44.422Z,26.73
2018-11-14T22:51:12.671Z,28.80
2018-11-14T22:53:40.878Z,29.33
2018-11-14T22:56:09.120Z,28.40
2018-11-14T22:58:37.273Z,28.43
2018-11-14T23:01:05.728Z,26.33
2018-11-14T23:03:33.904Z,29.17
2018-11-14T23:06:02.140Z,24.53
2018-11-14T23:08:30.323Z,26.83
2018-11-14T23:10:58.607Z,28.40
2018-11-14T23:13:26.845Z,28.30
2018-11-14T23:15:55.215Z,30.30
2018-11-14T23:18:23.371Z,28.83
2018-11-14T23:20:51.529Z,31.07
2018-11-14T23:23:19.773Z,24.40
2018-11-14T23:25:47.858Z,32.80
2018-11-14T23:28:16.035Z,27.87
2018-11-14T23:30:44.209Z,30.00
2018-11-14T23:33:12.366Z,31.80
2018-11-14T23:35:40.537Z,29.23
2018-11-14T23:38:08.685Z,26.37
2018-11-14T23:40:36.856Z,26.03
2018-11-14T23:43:05.138Z,30.70
2018-11-14T23:45:33.303Z,28.37
2018-11-14T23:48:01.447Z,25.20
2018-11-14T23:50:30.853Z,28.63
2018-11-14T23:53:00.065Z,26.20
2018-11-14T23:55:29.102Z,29.40
2018-11-14T23:57:57.521Z,27.00
